Terminal Aerodrome Forecast
Issued by NWS Sterling, VA

Current Version | Previous Version | Graphics & Text | Print | Product List | Glossary On
Versions: 1 2 3 4 5 6 7 8 9 10 11 12 13 14 15 16 17 18 19 20 21
867
FTUS41 KLWX 271124
TAFIAD
TAF
KIAD 271124Z 2712/2818 VRB03KT P6SM BKN090
     FM271500 28007KT P6SM OVC080
     FM271800 27008KT P6SM VCTS BKN070CB
     FM272200 27009KT P6SM SCT070
     FM280100 31006KT P6SM FEW070=

USA.gov is the U.S. government's official web portal to all federal, state and local government web resources and services.